Time;durP1;ratioP1;P1;durP2;ratioP2;P2;SDS_P1;SDS_P2;PMS_P1;PMS_P2;Temp;Humidity;BMP_temperature;BMP_pressure;BME280_temperature;BME280_humidity;BME280_pressure;Samples;Min_cycle;Max_cycle;Signal;HPM_P1;HPM_P2
2021/08/22 00:02:03;;;;;;;22.88;11.63;;;;;;;-145.01;100.00;64805.59;4992388;28;20378;-66
2021/08/22 00:04:29;;;;;;;21.52;12.05;;;;;;;-145.01;100.00;64805.59;4992975;28;20551;-65
2021/08/22 00:06:54;;;;;;;26.00;12.15;;;;;;;-145.01;100.00;64805.59;4991141;28;20038;-66
2021/08/22 00:09:19;;;;;;;22.67;13.65;;;;;;;-145.01;100.00;64805.59;4991343;28;20050;-65
2021/08/22 00:11:45;;;;;;;15.80;9.13;;;;;;;-145.01;100.00;64805.59;4992355;28;20049;-66
2021/08/22 00:14:10;;;;;;;20.98;6.75;;;;;;;-145.01;100.00;64805.59;4994868;28;20041;-66
2021/08/22 00:16:36;;;;;;;13.75;6.30;;;;;;;-145.01;100.00;64805.59;4995880;28;20072;-66
2021/08/22 00:19:01;;;;;;;16.98;6.82;;;;;;;-145.01;100.00;64805.59;4996286;28;20030;-68
2021/08/22 00:21:27;;;;;;;18.55;6.90;;;;;;;-145.01;100.00;64805.59;4995981;28;20034;-68
2021/08/22 00:23:52;;;;;;;19.00;7.15;;;;;;;-145.01;100.00;64805.59;4994977;28;20092;-67
2021/08/22 00:26:17;;;;;;;22.95;7.88;;;;;;;-145.01;100.00;64805.59;4995957;28;20473;-67
2021/08/22 00:28:43;;;;;;;18.33;7.50;;;;;;;-145.01;100.00;64805.59;4996073;28;20030;-67
2021/08/22 00:31:08;;;;;;;19.52;6.80;;;;;;;-145.01;100.00;64805.59;4995630;28;20030;-67
2021/08/22 00:33:34;;;;;;;17.50;7.50;;;;;;;-145.01;100.00;64805.59;4996249;28;20026;-66
2021/08/22 00:35:59;;;;;;;21.70;8.35;;;;;;;-145.01;100.00;64805.59;4995621;28;20049;-66
2021/08/22 00:38:25;;;;;;;18.27;7.45;;;;;;;-145.01;100.00;64805.59;4996007;28;20031;-66
2021/08/22 00:40:50;;;;;;;19.42;7.53;;;;;;;-145.01;100.00;64805.59;4995442;28;20031;-66
2021/08/22 00:43:15;;;;;;;17.77;7.45;;;;;;;-145.01;100.00;64805.59;4995774;28;20031;-66
2021/08/22 00:45:42;;;;;;;14.38;6.75;;;;;;;-145.01;100.00;64805.59;4995568;28;20030;-66
2021/08/22 00:48:10;;;;;;;13.75;6.65;;;;;;;-145.01;100.00;64805.59;4994961;28;20396;-66
2021/08/22 00:50:35;;;;;;;18.65;7.47;;;;;;;-145.01;100.00;64805.59;4994941;28;20031;-66
2021/08/22 00:53:03;;;;;;;13.48;6.90;;;;;;;-145.01;100.00;64805.59;4994540;28;20033;-66
2021/08/22 00:55:31;;;;;;;14.00;7.15;;;;;;;-145.01;100.00;64805.59;4995301;28;20117;-66
2021/08/22 00:57:56;;;;;;;14.85;7.07;;;;;;;-145.01;100.00;64805.59;4994423;28;20437;-66
2021/08/22 01:00:22;;;;;;;16.50;7.57;;;;;;;-145.01;100.00;64805.59;4994076;28;20038;-66
2021/08/22 01:03:20;;;;;;;18.30;7.43;;;;;;;-145.01;100.00;64805.59;4978302;28;20030;-66
2021/08/22 01:05:59;;;;;;;17.48;8.07;;;;;;;-145.01;100.00;64805.59;4994701;28;20039;-66
2021/08/22 01:08:35;;;;;;;21.58;7.82;;;;;;;-145.01;100.00;64805.59;4972569;28;20038;-66
2021/08/22 01:11:14;;;;;;;18.52;7.88;;;;;;;-145.01;100.00;64805.59;4975754;28;20035;-66
2021/08/22 01:13:42;;;;;;;35.03;9.05;;;;;;;-145.01;100.00;64805.59;4975351;28;20035;-66
2021/08/22 01:16:08;;;;;;;16.05;7.93;;;;;;;-145.01;100.00;64805.59;4990254;28;20149;-66
2021/08/22 01:18:34;;;;;;;18.98;7.97;;;;;;;-145.01;100.00;64805.59;5007027;28;20056;-65
2021/08/22 01:21:09;;;;;;;19.23;8.57;;;;;;;-145.01;100.00;64805.59;4974116;28;20121;-66
2021/08/22 01:23:51;;;;;;;13.95;8.23;;;;;;;-145.01;100.00;64805.59;4974532;28;20058;-66
2021/08/22 01:26:18;;;;;;;18.52;8.35;;;;;;;-145.01;100.00;64805.59;5004686;28;20493;-66
2021/08/22 01:28:47;;;;;;;14.32;9.00;;;;;;;-145.01;100.00;64805.59;4958343;28;20031;-66
2021/08/22 01:31:18;;;;;;;16.70;8.77;;;;;;;-145.01;100.00;64805.59;4975016;28;20031;-66
2021/08/22 01:33:44;;;;;;;20.83;8.02;;;;;;;-145.01;100.00;64805.59;4974359;28;20466;-65
2021/08/22 01:36:10;;;;;;;17.83;8.57;;;;;;;-145.01;100.00;64805.59;4973487;28;20109;-66
2021/08/22 01:38:35;;;;;;;23.00;8.38;;;;;;;-145.01;100.00;64805.59;4974401;28;20089;-66
2021/08/22 01:41:01;;;;;;;18.13;8.55;;;;;;;-145.01;100.00;64805.59;4973978;28;20035;-66
2021/08/22 01:43:26;;;;;;;17.60;9.20;;;;;;;-145.01;100.00;64805.59;4958090;28;20038;-66
2021/08/22 01:45:54;;;;;;;19.65;9.65;;;;;;;-145.01;100.00;64805.59;4973619;28;20038;-66
2021/08/22 01:48:20;;;;;;;14.25;8.40;;;;;;;-145.01;100.00;64805.59;4990388;28;20033;-66
2021/08/22 01:50:46;;;;;;;15.77;8.15;;;;;;;-145.01;100.00;64805.59;4974051;28;20345;-65
2021/08/22 01:53:12;;;;;;;16.55;8.57;;;;;;;-145.01;100.00;64805.59;4975189;28;20031;-65
2021/08/22 01:55:37;;;;;;;21.48;9.00;;;;;;;-145.01;100.00;64805.59;4957289;28;20446;-66
2021/08/22 01:58:03;;;;;;;23.73;9.90;;;;;;;-145.01;100.00;64805.59;4975045;28;20058;-65
2021/08/22 02:00:32;;;;;;;20.50;8.90;;;;;;;-145.01;100.00;64805.59;4974654;28;20097;-66
2021/08/22 02:03:10;;;;;;;17.88;9.23;;;;;;;-145.01;100.00;64805.59;4973679;28;20059;-65
2021/08/22 02:05:38;;;;;;;18.05;9.13;;;;;;;-145.01;100.00;64805.59;4974485;28;20065;-66
2021/08/22 02:08:14;;;;;;;25.92;10.70;;;;;;;-145.01;100.00;64805.59;4973794;28;20027;-66
2021/08/22 02:10:46;;;;;;;18.20;9.18;;;;;;;-145.01;100.00;64805.59;4972885;28;20071;-66
2021/08/22 02:13:12;;;;;;;16.88;9.88;;;;;;;-145.01;100.00;64805.59;4957746;28;20026;-65
2021/08/22 02:15:41;;;;;;;23.05;9.77;;;;;;;-145.01;100.00;64805.59;4972933;28;20049;-66
2021/08/22 02:18:11;;;;;;;19.77;9.98;;;;;;;-145.01;100.00;64805.59;4957891;28;20038;-65
2021/08/22 02:20:38;;;;;;;20.85;10.30;;;;;;;-145.01;100.00;64805.59;4973012;28;20085;-65
2021/08/22 02:23:04;;;;;;;21.40;10.02;;;;;;;-145.01;100.00;64805.59;4973433;28;20390;-66
2021/08/22 02:25:29;;;;;;;23.63;10.85;;;;;;;-145.01;100.00;64805.59;4972677;28;20393;-66
2021/08/22 02:27:56;;;;;;;20.38;10.57;;;;;;;-145.01;100.00;64805.59;4973253;28;20477;-65
2021/08/22 02:30:22;;;;;;;28.52;14.82;;;;;;;-145.01;100.00;64805.59;4972722;28;20058;-65
2021/08/22 02:32:47;;;;;;;27.52;15.85;;;;;;;-145.01;100.00;64805.59;4973368;28;20450;-66
2021/08/22 02:35:13;;;;;;;30.02;15.30;;;;;;;-145.01;100.00;64805.59;4956864;28;20027;-65
2021/08/22 02:37:38;;;;;;;23.95;14.30;;;;;;;-145.01;100.00;64805.59;4974173;28;20437;-65
2021/08/22 02:40:05;;;;;;;25.70;14.85;;;;;;;-145.01;100.00;64805.59;4972786;28;20123;-65
2021/08/22 02:42:30;;;;;;;30.15;14.88;;;;;;;-145.01;100.00;64805.59;4974671;28;20426;-66
2021/08/22 02:44:56;;;;;;;29.02;14.98;;;;;;;-145.01;100.00;64805.59;4980601;28;20045;-66
2021/08/22 02:47:21;;;;;;;35.55;15.75;;;;;;;-145.01;100.00;64805.59;4993294;28;20038;-65
2021/08/22 02:49:50;;;;;;;25.33;14.25;;;;;;;-145.01;100.00;64805.59;4994068;28;20023;-65
2021/08/22 02:52:16;;;;;;;23.17;13.23;;;;;;;-145.01;100.00;64805.59;4975763;28;20452;-65
2021/08/22 02:54:41;;;;;;;23.23;13.48;;;;;;;-145.01;100.00;64805.59;4992341;28;20045;-65
2021/08/22 02:57:07;;;;;;;21.70;12.90;;;;;;;-145.01;100.00;64805.59;4992371;28;20520;-65
2021/08/22 02:59:33;;;;;;;23.13;13.20;;;;;;;-145.01;100.00;64805.59;4992191;28;20026;-65
2021/08/22 03:01:58;;;;;;;24.13;13.90;;;;;;;-145.01;100.00;64805.59;4975688;28;20038;-65
2021/08/22 03:04:24;;;;;;;22.90;12.30;;;;;;;-145.01;100.00;64805.59;4976004;28;20019;-65
2021/08/22 03:06:49;;;;;;;23.70;12.32;;;;;;;-145.01;100.00;64805.59;4992163;28;20051;-65
2021/08/22 03:09:15;;;;;;;19.10;11.38;;;;;;;-145.01;100.00;64805.59;4993446;28;20080;-65
2021/08/22 03:11:41;;;;;;;21.27;10.50;;;;;;;-145.01;100.00;64805.59;4992859;28;20041;-65
2021/08/22 03:14:06;;;;;;;22.05;10.95;;;;;;;-145.01;100.00;64805.59;4976115;28;20038;-66
2021/08/22 03:16:32;;;;;;;18.52;10.95;;;;;;;-145.01;100.00;64805.59;4991842;28;20516;-65
2021/08/22 03:18:57;;;;;;;20.73;11.48;;;;;;;-145.01;100.00;64805.59;4975940;28;20022;-65
2021/08/22 03:21:23;;;;;;;17.92;11.27;;;;;;;-145.01;100.00;64805.59;4993068;28;20038;-65
2021/08/22 03:23:48;;;;;;;18.02;11.02;;;;;;;-145.01;100.00;64805.59;4992421;28;20023;-65
2021/08/22 03:26:14;;;;;;;16.02;10.30;;;;;;;-145.01;100.00;64805.59;4991523;28;20039;-65
2021/08/22 03:28:40;;;;;;;16.30;10.50;;;;;;;-145.01;100.00;64805.59;4992028;28;20061;-66
2021/08/22 03:31:06;;;;;;;19.52;10.38;;;;;;;-145.01;100.00;64805.59;4975576;28;20037;-66
2021/08/22 03:33:32;;;;;;;15.68;10.27;;;;;;;-145.01;100.00;64805.59;4993409;28;20034;-65
2021/08/22 03:35:57;;;;;;;20.15;10.63;;;;;;;-145.01;100.00;64805.59;4991138;28;20398;-65
2021/08/22 03:38:22;;;;;;;17.65;10.43;;;;;;;-145.01;100.00;64805.59;4993373;28;20126;-65
2021/08/22 03:40:48;;;;;;;21.65;11.93;;;;;;;-145.01;100.00;64805.59;4992750;28;20034;-65
2021/08/22 03:43:13;;;;;;;18.63;12.07;;;;;;;-145.01;100.00;64805.59;4993369;28;20034;-65
2021/08/22 03:45:42;;;;;;;21.15;13.23;;;;;;;-145.01;100.00;64805.59;4992838;28;20038;-65
2021/08/22 03:48:10;;;;;;;26.88;12.65;;;;;;;-145.01;100.00;64805.59;4977023;28;20026;-65
2021/08/22 03:50:36;;;;;;;19.38;12.30;;;;;;;-145.01;100.00;64805.59;4996470;28;20034;-66
2021/08/22 03:53:01;;;;;;;17.23;10.88;;;;;;;-145.01;100.00;64805.59;4997008;28;20465;-65
2021/08/22 03:55:27;;;;;;;19.42;11.68;;;;;;;-145.01;100.00;64805.59;4995105;28;20042;-66
2021/08/22 03:57:53;;;;;;;18.45;10.55;;;;;;;-145.01;100.00;64805.59;4996973;28;20030;-66
2021/08/22 04:00:18;;;;;;;21.13;11.05;;;;;;;-145.01;100.00;64805.59;4994713;28;20469;-66
2021/08/22 04:02:44;;;;;;;19.73;11.52;;;;;;;-145.01;100.00;64805.59;4996721;28;20027;-65
2021/08/22 04:05:11;;;;;;;23.52;12.18;;;;;;;-145.01;100.00;64805.59;4995927;28;20081;-65
2021/08/22 04:07:38;;;;;;;25.63;12.77;;;;;;;-145.01;100.00;64805.59;4995226;28;20037;-65
2021/08/22 04:10:05;;;;;;;25.42;14.05;;;;;;;-145.01;100.00;64805.59;4994652;28;20054;-65
2021/08/22 04:12:30;;;;;;;18.63;12.52;;;;;;;-145.01;100.00;64805.59;4995154;28;20062;-65
2021/08/22 04:14:56;;;;;;;21.85;11.38;;;;;;;-145.01;100.00;64805.59;4995221;28;20046;-65
2021/08/22 04:17:23;;;;;;;18.10;11.07;;;;;;;-145.01;100.00;64805.59;4993864;28;20061;-66
2021/08/22 04:19:48;;;;;;;16.15;10.23;;;;;;;-145.01;100.00;64805.59;4978782;28;20031;-66
2021/08/22 04:22:14;;;;;;;20.02;10.07;;;;;;;-145.01;100.00;64805.59;4994072;28;20042;-65
2021/08/22 04:24:39;;;;;;;21.25;10.70;;;;;;;-145.01;100.00;64805.59;4996225;28;20041;-65
2021/08/22 04:27:05;;;;;;;17.85;11.07;;;;;;;-145.01;100.00;64805.59;4994171;28;20046;-66
2021/08/22 04:29:32;;;;;;;19.75;11.20;;;;;;;-145.01;100.00;64805.59;4978773;28;20033;-66
2021/08/22 04:31:58;;;;;;;18.52;11.13;;;;;;;-145.01;100.00;64805.59;4995433;28;20038;-66
2021/08/22 04:34:23;;;;;;;20.00;11.80;;;;;;;-145.01;100.00;64805.59;4994726;28;20480;-65
2021/08/22 04:36:49;;;;;;;19.05;10.77;;;;;;;-145.01;100.00;64805.59;4995490;28;20451;-65
2021/08/22 04:39:15;;;;;;;18.70;11.18;;;;;;;-145.01;100.00;64805.59;4996174;28;20458;-66
2021/08/22 04:41:44;;;;;;;17.98;10.30;;;;;;;-145.01;100.00;64805.59;4994948;28;20042;-65
2021/08/22 04:44:10;;;;;;;21.00;10.98;;;;;;;-145.01;100.00;64805.59;4995950;28;20038;-65
2021/08/22 04:46:36;;;;;;;22.85;10.60;;;;;;;-145.01;100.00;64805.59;4995019;28;20050;-65
2021/08/22 04:49:01;;;;;;;18.73;11.00;;;;;;;-145.01;100.00;64805.59;4978365;28;20488;-65
2021/08/22 04:51:27;;;;;;;23.42;11.55;;;;;;;-145.01;100.00;64805.59;4995228;28;20041;-66
2021/08/22 04:53:52;;;;;;;17.67;10.15;;;;;;;-145.01;100.00;64805.59;4995487;28;20029;-66
2021/08/22 04:56:18;;;;;;;17.55;9.63;;;;;;;-145.01;100.00;64805.59;4994150;28;20046;-66
2021/08/22 04:58:44;;;;;;;13.68;8.07;;;;;;;-145.01;100.00;64805.59;4995312;28;20030;-66
2021/08/22 05:01:09;;;;;;;14.45;8.52;;;;;;;-145.01;100.00;64805.59;4993805;28;20042;-67
2021/08/22 05:03:35;;;;;;;19.00;9.02;;;;;;;-145.01;100.00;64805.59;4977971;28;20038;-66
2021/08/22 05:06:00;;;;;;;18.05;9.73;;;;;;;-145.01;100.00;64805.59;4994166;28;20085;-66
2021/08/22 05:08:26;;;;;;;15.18;8.50;;;;;;;-145.01;100.00;64805.59;4995057;28;20026;-66
2021/08/22 05:10:53;;;;;;;19.88;9.18;;;;;;;-145.01;100.00;64805.59;4995167;28;20647;-66
2021/08/22 05:13:18;;;;;;;16.88;8.15;;;;;;;-145.01;100.00;64805.59;4995378;28;20416;-65
2021/08/22 05:15:45;;;;;;;13.90;7.95;;;;;;;-145.01;100.00;64805.59;4993434;28;20046;-66
2021/08/22 05:18:10;;;;;;;14.35;7.43;;;;;;;-145.01;100.00;64805.59;4994090;28;20030;-66
2021/08/22 05:20:36;;;;;;;14.95;6.85;;;;;;;-145.01;100.00;64805.59;4995045;28;20516;-66
2021/08/22 05:23:01;;;;;;;9.75;6.63;;;;;;;-145.01;100.00;64805.59;4993936;28;20397;-66
2021/08/22 05:25:26;;;;;;;12.98;6.90;;;;;;;-145.01;100.00;64805.59;4994718;28;20473;-66
2021/08/22 05:27:52;;;;;;;16.05;7.32;;;;;;;-145.01;100.00;64805.59;4995029;28;20045;-66
2021/08/22 05:30:17;;;;;;;11.02;6.85;;;;;;;-145.01;100.00;64805.59;4994687;28;20027;-66
2021/08/22 05:32:43;;;;;;;11.13;6.15;;;;;;;-145.01;100.00;64805.59;4994903;28;20062;-66
2021/08/22 05:35:09;;;;;;;12.07;5.75;;;;;;;-145.01;100.00;64805.59;4994631;28;20023;-66
2021/08/22 05:37:34;;;;;;;9.75;5.75;;;;;;;-145.01;100.00;64805.59;4994989;28;20026;-66
2021/08/22 05:39:59;;;;;;;13.02;6.32;;;;;;;-145.01;100.00;64805.59;4993738;28;20385;-66
2021/08/22 05:42:25;;;;;;;9.43;5.68;;;;;;;-145.01;100.00;64805.59;4994515;28;20071;-66
2021/08/22 05:44:50;;;;;;;11.57;6.25;;;;;;;-145.01;100.00;64805.59;4994859;28;20073;-66
2021/08/22 05:47:20;;;;;;;10.73;6.32;;;;;;;-145.01;100.00;64805.59;4994155;28;20042;-66
2021/08/22 05:49:47;;;;;;;13.23;6.40;;;;;;;-145.01;100.00;64805.59;4994536;28;20384;-66
2021/08/22 05:52:13;;;;;;;8.13;5.47;;;;;;;-145.01;100.00;64805.59;4994207;28;20097;-66
2021/08/22 05:54:38;;;;;;;18.73;6.38;;;;;;;-145.01;100.00;64805.59;4994848;28;20468;-66
2021/08/22 05:57:04;;;;;;;14.50;6.97;;;;;;;-145.01;100.00;64805.59;4994080;28;20035;-66
2021/08/22 05:59:29;;;;;;;12.65;6.40;;;;;;;-145.01;100.00;64805.59;4994423;28;20031;-66
2021/08/22 06:01:54;;;;;;;11.63;6.75;;;;;;;-145.01;100.00;64805.59;4994045;28;20042;-66
2021/08/22 06:04:20;;;;;;;12.70;6.78;;;;;;;-145.01;100.00;64805.59;4994519;28;20022;-66
2021/08/22 06:06:46;;;;;;;10.63;6.20;;;;;;;-145.01;100.00;64805.59;4993879;28;20493;-66
2021/08/22 06:09:11;;;;;;;11.25;6.45;;;;;;;-145.01;100.00;64805.59;4994225;28;20075;-66
2021/08/22 06:11:37;;;;;;;15.43;6.50;;;;;;;-145.01;100.00;64805.59;4993323;28;20121;-66
2021/08/22 06:14:02;;;;;;;10.07;6.18;;;;;;;-145.01;100.00;64805.59;4993007;28;20038;-66
2021/08/22 06:16:28;;;;;;;12.10;6.85;;;;;;;-145.01;100.00;64805.59;4993605;28;20041;-66
2021/08/22 06:18:53;;;;;;;8.90;6.30;;;;;;;-145.01;100.00;64805.59;4994423;28;20041;-66
2021/08/22 06:21:19;;;;;;;11.43;6.10;;;;;;;-145.01;100.00;64805.59;4993744;28;20034;-66
2021/08/22 06:23:44;;;;;;;12.75;6.93;;;;;;;-145.01;100.00;64805.59;4994225;28;20059;-66
2021/08/22 06:26:10;;;;;;;13.90;6.15;;;;;;;-145.01;100.00;64805.59;4993639;28;20370;-66
2021/08/22 06:28:35;;;;;;;13.82;6.22;;;;;;;-145.01;100.00;64805.59;4992744;28;20374;-67
2021/08/22 06:31:00;;;;;;;9.98;6.57;;;;;;;-145.01;100.00;64805.59;4993511;28;20069;-66
2021/08/22 06:33:26;;;;;;;11.75;6.00;;;;;;;-145.01;100.00;64805.59;4994055;28;20077;-65
2021/08/22 06:35:51;;;;;;;11.40;6.65;;;;;;;-145.01;100.00;64805.59;4993594;28;20485;-66
2021/08/22 06:38:17;;;;;;;10.38;5.80;;;;;;;-145.01;100.00;64805.59;4993880;28;20026;-66
2021/08/22 06:40:42;;;;;;;13.38;5.88;;;;;;;-145.01;100.00;64805.59;4993535;28;20449;-65
2021/08/22 06:43:07;;;;;;;10.25;6.15;;;;;;;-145.01;100.00;64805.59;4993703;28;20062;-66
2021/08/22 06:45:33;;;;;;;10.23;6.60;;;;;;;-145.01;100.00;64805.59;4993158;28;20034;-65
2021/08/22 06:47:58;;;;;;;9.65;6.55;;;;;;;-145.01;100.00;64805.59;4993486;28;20035;-65
2021/08/22 06:50:24;;;;;;;13.15;7.40;;;;;;;-145.01;100.00;64805.59;4993394;28;20035;-65
2021/08/22 06:52:50;;;;;;;11.73;7.43;;;;;;;-145.01;100.00;64805.59;4993538;28;20033;-65
2021/08/22 06:55:15;;;;;;;19.65;7.97;;;;;;;-145.01;100.00;64805.59;4993124;28;20469;-66
2021/08/22 06:57:41;;;;;;;15.40;8.40;;;;;;;-145.01;100.00;64805.59;4993499;28;20030;-66
2021/08/22 07:00:07;;;;;;;16.08;8.50;;;;;;;-145.01;100.00;64805.59;4993000;28;20026;-65
2021/08/22 07:02:32;;;;;;;14.38;7.32;;;;;;;-145.01;100.00;64805.59;4993335;28;20057;-66
2021/08/22 07:04:58;;;;;;;15.25;8.70;;;;;;;-145.01;100.00;64805.59;4993289;28;20417;-66
2021/08/22 07:07:23;;;;;;;13.02;7.90;;;;;;;-145.01;100.00;64805.59;4992897;28;20401;-66
2021/08/22 07:09:48;;;;;;;13.82;8.38;;;;;;;-145.01;100.00;64805.59;4993237;28;20543;-66
2021/08/22 07:12:14;;;;;;;16.35;9.60;;;;;;;-145.01;100.00;64805.59;4992976;28;20086;-66
2021/08/22 07:14:40;;;;;;;18.73;9.63;;;;;;;-145.01;100.00;64805.59;4991611;28;20022;-66
2021/08/22 07:17:06;;;;;;;17.30;9.20;;;;;;;-145.01;100.00;64805.59;4991643;28;20393;-65
2021/08/22 07:19:31;;;;;;;17.23;9.68;;;;;;;-145.01;100.00;64805.59;4992401;28;20014;-65
2021/08/22 07:21:57;;;;;;;16.52;9.68;;;;;;;-145.01;100.00;64805.59;4990885;28;20112;-66
2021/08/22 07:24:22;;;;;;;21.30;9.60;;;;;;;-145.01;100.00;64805.59;4996278;28;20026;-66
2021/08/22 07:26:48;;;;;;;16.77;9.27;;;;;;;-145.01;100.00;64805.59;4995667;28;20046;-66
2021/08/22 07:29:13;;;;;;;15.95;9.70;;;;;;;-145.01;100.00;64805.59;4996117;28;20070;-65
2021/08/22 07:31:38;;;;;;;19.60;9.10;;;;;;;-145.01;100.00;64805.59;4996138;28;20126;-66
2021/08/22 07:34:04;;;;;;;16.42;9.00;;;;;;;-145.01;100.00;64805.59;4997081;28;20059;-66
2021/08/22 07:36:29;;;;;;;16.77;9.57;;;;;;;-145.01;100.00;64805.59;4996615;28;20092;-66
2021/08/22 07:38:55;;;;;;;15.52;9.70;;;;;;;-145.01;100.00;64805.59;4996977;28;20081;-66
2021/08/22 07:41:20;;;;;;;19.35;10.93;;;;;;;-145.01;100.00;64805.59;4996589;28;20034;-65
2021/08/22 07:43:46;;;;;;;18.10;9.35;;;;;;;-145.01;100.00;64805.59;4996877;28;20349;-66
2021/08/22 07:46:11;;;;;;;15.55;9.57;;;;;;;-145.01;100.00;64805.59;4996435;28;20038;-65
2021/08/22 07:48:36;;;;;;;19.45;10.23;;;;;;;-145.01;100.00;64805.59;4996801;28;20436;-65
2021/08/22 07:51:02;;;;;;;14.15;9.65;;;;;;;-145.01;100.00;64805.59;4995393;28;20050;-65
2021/08/22 07:53:27;;;;;;;26.85;10.77;;;;;;;-145.01;100.00;64805.59;4995477;28;20027;-65
2021/08/22 07:55:53;;;;;;;15.90;9.48;;;;;;;-145.01;100.00;64805.59;4995144;28;20374;-66
2021/08/22 07:58:18;;;;;;;18.58;10.02;;;;;;;-145.01;100.00;64805.59;4996589;28;20034;-65
2021/08/22 08:00:44;;;;;;;15.60;10.60;;;;;;;-145.01;100.00;64805.59;4996452;28;20062;-65
2021/08/22 08:03:09;;;;;;;17.27;10.32;;;;;;;-145.01;100.00;64805.59;4996624;28;20485;-66
2021/08/22 08:05:35;;;;;;;18.92;10.88;;;;;;;-145.01;100.00;64805.59;4996281;28;20508;-65
2021/08/22 08:08:00;;;;;;;21.20;9.73;;;;;;;-145.01;100.00;64805.59;4996475;28;20037;-65
2021/08/22 08:10:26;;;;;;;16.17;10.55;;;;;;;-145.01;100.00;64805.59;4994513;28;20080;-65
2021/08/22 08:12:52;;;;;;;19.25;10.52;;;;;;;-145.01;100.00;64805.59;4996427;28;20030;-65
2021/08/22 08:15:17;;;;;;;20.63;11.20;;;;;;;-145.01;100.00;64805.59;4995857;28;20022;-65
2021/08/22 08:17:45;;;;;;;23.95;10.07;;;;;;;-145.01;100.00;64805.59;4996158;28;20022;-65
2021/08/22 08:20:11;;;;;;;16.75;10.23;;;;;;;-145.01;100.00;64805.59;4995684;28;20014;-66
2021/08/22 08:22:36;;;;;;;18.92;10.80;;;;;;;-145.01;100.00;64805.59;4996224;28;20077;-65
2021/08/22 08:25:02;;;;;;;17.50;10.55;;;;;;;-145.01;100.00;64805.59;4995712;28;20030;-65
2021/08/22 08:27:27;;;;;;;22.63;10.88;;;;;;;-145.01;100.00;64805.59;4996028;28;20485;-65
2021/08/22 08:29:53;;;;;;;18.77;10.45;;;;;;;-145.01;100.00;64805.59;4996299;28;20030;-65
2021/08/22 08:32:18;;;;;;;16.90;9.95;;;;;;;-145.01;100.00;64805.59;4995670;28;20038;-65
2021/08/22 08:34:44;;;;;;;15.93;10.40;;;;;;;-145.01;100.00;64805.59;4994219;28;20030;-65
2021/08/22 08:37:09;;;;;;;21.05;9.95;;;;;;;-145.01;100.00;64805.59;4995601;28;20031;-66
2021/08/22 08:39:35;;;;;;;18.13;9.75;;;;;;;-145.01;100.00;64805.59;4994867;28;20034;-65
2021/08/22 08:42:18;;;;;;;21.23;9.90;;;;;;;-145.01;100.00;64805.59;4977515;28;20038;-65
2021/08/22 08:44:44;;;;;;;17.95;9.88;;;;;;;-145.01;100.00;64805.59;4981034;28;20049;-65
2021/08/22 08:47:15;;;;;;;17.40;10.75;;;;;;;-145.01;100.00;64805.59;4974301;28;20086;-66
2021/08/22 08:50:02;;;;;;;21.42;10.93;;;;;;;-145.01;100.00;64805.59;4974324;28;20362;-66
2021/08/22 08:52:34;;;;;;;22.33;10.75;;;;;;;-145.01;100.00;64805.59;4974978;28;20051;-66
2021/08/22 08:55:19;;;;;;;20.77;10.73;;;;;;;-145.01;100.00;64805.59;4974777;28;20026;-66
2021/08/22 08:57:44;;;;;;;17.63;11.32;;;;;;;-145.01;100.00;64805.59;5006513;28;20542;-67
2021/08/22 09:00:15;;;;;;;23.55;12.07;;;;;;;-145.01;100.00;64805.59;4974999;28;20018;-67
2021/08/22 09:02:40;;;;;;;;;;;;;;;-145.01;100.00;64805.59;4976438;28;20042;-66
2021/08/22 09:05:37;;;;;;;24.13;12.25;;;;;;;-145.01;100.00;64805.59;4975504;28;19910;-67
2021/08/22 09:08:30;;;;;;;21.80;11.43;;;;;;;-145.01;100.00;64805.59;4984329;28;20455;-67
2021/08/22 09:11:33;;;;;;;22.98;11.80;;;;;;;-145.01;100.00;64805.59;4975600;28;20049;-67
2021/08/22 09:14:20;;;;;;;21.00;12.32;;;;;;;-145.01;100.00;64805.59;4993666;28;20057;-67
2021/08/22 09:17:03;;;;;;;14.07;9.02;;;;;;;-145.01;100.00;64805.59;4995154;28;20044;-67
2021/08/22 09:19:47;;;;;;;16.45;8.73;;;;;;;-145.01;100.00;64805.59;4995330;28;20050;-67
2021/08/22 09:22:54;;;;;;;10.95;6.63;;;;;;;-145.01;100.00;64805.59;4994965;28;20051;-67
2021/08/22 09:25:57;;;;;;;13.32;6.25;;;;;;;-145.01;100.00;64805.59;4993961;28;20034;-67
2021/08/22 09:28:44;;;;;;;16.02;6.57;;;;;;;-145.01;100.00;64805.59;4995237;28;20473;-67
2021/08/22 09:31:37;;;;;;;9.32;5.53;;;;;;;-145.01;100.00;64805.59;4994928;28;20050;-66
2021/08/22 09:34:09;;;;;;;11.45;5.63;;;;;;;-145.01;100.00;64805.59;4994980;28;20031;-66
2021/08/22 09:36:34;;;;;;;13.63;6.55;;;;;;;-145.01;100.00;64805.59;4994702;28;20041;-66
2021/08/22 09:39:24;;;;;;;11.20;6.28;;;;;;;-145.01;100.00;64805.59;4994909;28;20026;-66
2021/08/22 09:41:55;;;;;;;12.55;6.60;;;;;;;-145.01;100.00;64805.59;4994460;28;20130;-66
2021/08/22 09:44:42;;;;;;;11.93;6.60;;;;;;;-145.01;100.00;64805.59;4994866;28;20041;-66
2021/08/22 09:47:53;;;;;;;10.80;5.95;;;;;;;-145.01;100.00;64805.59;4993210;28;20121;-66
2021/08/22 09:50:56;;;;;;;11.63;5.03;;;;;;;-145.01;100.00;64805.59;4993209;28;20098;-66
2021/08/22 09:53:39;;;;;;;9.10;5.47;;;;;;;-145.01;100.00;64805.59;4994777;28;20030;-66
2021/08/22 09:56:42;;;;;;;10.55;6.13;;;;;;;-145.01;100.00;64805.59;4994136;28;20552;-66
2021/08/22 09:59:14;;;;;;;10.55;4.63;;;;;;;-145.01;100.00;64805.59;5025989;28;20030;-66
2021/08/22 10:02:18;;;;;;;8.75;4.32;;;;;;;-145.01;100.00;64805.59;4994093;28;20049;-66
2021/08/22 10:04:55;;;;;;;9.68;4.43;;;;;;;-145.01;100.00;64805.59;5025984;28;20081;-66
2021/08/22 10:07:45;;;;;;;8.30;3.83;;;;;;;-145.01;100.00;64805.59;4993754;28;20497;-66
2021/08/22 10:10:13;;;;;;;4.80;2.80;;;;;;;-145.01;100.00;64805.59;4992667;28;20046;-66
2021/08/22 10:12:38;;;;;;;12.02;3.35;;;;;;;-145.01;100.00;64805.59;4993066;28;20029;-66
2021/08/22 10:15:04;;;;;;;5.20;2.80;;;;;;;-145.01;100.00;64805.59;4993861;28;20019;-66
2021/08/22 10:17:29;;;;;;;5.18;2.65;;;;;;;-145.01;100.00;64805.59;4994336;28;20045;-66
2021/08/22 10:19:55;;;;;;;7.40;3.40;;;;;;;-145.01;100.00;64805.59;4992843;28;20488;-66
2021/08/22 10:22:29;;;;;;;5.70;3.55;;;;;;;-145.01;100.00;64805.59;4993935;28;20038;-66
2021/08/22 10:24:57;;;;;;;7.10;3.42;;;;;;;-145.01;100.00;64805.59;5025571;28;20102;-66
2021/08/22 10:27:32;;;;;;;5.70;3.60;;;;;;;-145.01;100.00;64805.59;4992245;28;20041;-66
2021/08/22 10:29:59;;;;;;;7.80;4.10;;;;;;;-145.01;100.00;64805.59;4994051;28;20031;-66
2021/08/22 10:32:25;;;;;;;8.13;3.90;;;;;;;-145.01;100.00;64805.59;4993400;28;20040;-66
2021/08/22 10:35:15;;;;;;;7.82;3.60;;;;;;;-145.01;100.00;64805.59;4993862;28;20034;-66
2021/08/22 10:37:44;;;;;;;9.52;4.22;;;;;;;-145.01;100.00;64805.59;4993656;28;20105;-66
2021/08/22 10:40:21;;;;;;;9.63;4.43;;;;;;;-145.01;100.00;64805.59;4993374;28;20026;-66
2021/08/22 10:42:47;;;;;;;6.43;4.07;;;;;;;-145.01;100.00;64805.59;4993761;28;20101;-66
2021/08/22 10:45:44;;;;;;;6.43;3.75;;;;;;;-145.01;100.00;64805.59;4993213;28;20034;-66
2021/08/22 10:48:22;;;;;;;10.93;5.00;;;;;;;-145.01;100.00;64805.59;4993481;28;20172;-66
2021/08/22 10:50:56;;;;;;;12.82;5.20;;;;;;;-145.01;100.00;64805.59;4992298;28;20042;-66
2021/08/22 10:53:47;;;;;;;7.88;4.78;;;;;;;-145.01;100.00;64805.59;4993625;28;20504;-66
2021/08/22 10:56:22;;;;;;;9.43;4.88;;;;;;;-145.01;100.00;64805.59;4993319;28;20042;-66
2021/08/22 10:59:01;;;;;;;11.95;5.95;;;;;;;-145.01;100.00;64805.59;4993398;28;20027;-65
2021/08/22 11:01:37;;;;;;;9.05;5.35;;;;;;;-145.01;100.00;64805.59;4993204;28;20041;-66
2021/08/22 11:04:18;;;;;;;10.90;6.40;;;;;;;-145.01;100.00;64805.59;5025096;28;20038;-66
2021/08/22 11:07:06;;;;;;;12.35;6.78;;;;;;;-145.01;100.00;64805.59;4992915;28;20492;-66
2021/08/22 11:09:39;;;;;;;11.02;6.68;;;;;;;-145.01;100.00;64805.59;4993169;28;20510;-66